createdAt,value
2018-01-12T00:00:42.371Z,0
2018-01-12T00:01:52.506Z,0
2018-01-12T00:03:02.630Z,0
2018-01-12T00:04:12.492Z,0
2018-01-12T00:05:22.677Z,0
2018-01-12T00:06:32.889Z,0
2018-01-12T00:07:43.025Z,0
2018-01-12T00:08:53.155Z,0
2018-01-12T00:10:03.358Z,0
2018-01-12T00:11:13.500Z,0
2018-01-12T00:12:23.619Z,0
2018-01-12T00:13:33.769Z,0
2018-01-12T00:14:43.919Z,0
2018-01-12T00:15:54.183Z,0
2018-01-12T00:17:04.323Z,0
2018-01-12T00:18:14.481Z,0
2018-01-12T00:19:24.766Z,0
2018-01-12T00:20:34.988Z,0
2018-01-12T00:21:45.187Z,0
2018-01-12T00:22:55.361Z,0
2018-01-12T00:24:05.740Z,0
2018-01-12T00:25:15.918Z,0
2018-01-12T00:26:26.067Z,0
2018-01-12T00:27:36.219Z,0
2018-01-12T00:28:46.424Z,0
2018-01-12T00:29:56.349Z,0
2018-01-12T00:31:06.483Z,0
2018-01-12T00:32:16.669Z,0
2018-01-12T00:33:26.875Z,0
2018-01-12T00:34:37.009Z,0
2018-01-12T00:35:47.367Z,0
2018-01-12T00:36:57.538Z,0
2018-01-12T00:38:07.298Z,0
2018-01-12T00:39:17.648Z,0
2018-01-12T00:40:27.534Z,0
2018-01-12T00:41:37.673Z,0
2018-01-12T00:42:47.809Z,0
2018-01-12T00:43:57.940Z,0
2018-01-12T00:45:08.087Z,0
2018-01-12T00:46:18.201Z,0
2018-01-12T00:47:28.337Z,0
2018-01-12T00:48:38.473Z,0
2018-01-12T00:49:48.640Z,0
2018-01-12T00:50:58.531Z,0
2018-01-12T00:52:08.688Z,0
2018-01-12T00:53:18.837Z,0
2018-01-12T00:54:29.047Z,0
2018-01-12T00:55:39.184Z,0
2018-01-12T00:56:49.427Z,0
2018-01-12T00:57:59.639Z,0
2018-01-12T00:59:09.802Z,0
2018-01-12T01:00:19.920Z,0
2018-01-12T01:01:30.043Z,0
2018-01-12T01:02:40.171Z,0
2018-01-12T01:03:50.360Z,0
2018-01-12T01:05:00.566Z,0
2018-01-12T01:06:10.487Z,0
2018-01-12T01:07:20.617Z,0
2018-01-12T01:08:30.799Z,0
2018-01-12T01:09:40.926Z,0
2018-01-12T01:10:51.091Z,0
2018-01-12T01:12:01.330Z,0
2018-01-12T01:13:11.477Z,0
2018-01-12T01:14:21.716Z,0
2018-01-12T01:15:31.853Z,0
2018-01-12T01:16:41.608Z,0
2018-01-12T01:17:51.427Z,0
2018-01-12T01:19:01.666Z,0
2018-01-12T01:20:11.805Z,0
2018-01-12T01:21:21.947Z,0
2018-01-12T01:22:32.096Z,0
2018-01-12T01:23:42.325Z,0
2018-01-12T01:24:52.460Z,0
2018-01-12T01:26:02.605Z,0
2018-01-12T01:27:12.527Z,0
2018-01-12T01:28:22.675Z,0
2018-01-12T01:29:32.803Z,0
2018-01-12T01:30:43.059Z,0
2018-01-12T01:31:52.939Z,0
2018-01-12T01:33:03.148Z,0
2018-01-12T01:34:13.024Z,0
2018-01-12T01:35:23.209Z,0
2018-01-12T01:36:33.388Z,0
2018-01-12T01:37:43.295Z,0
2018-01-12T01:38:53.534Z,0
2018-01-12T01:40:03.670Z,0
2018-01-12T01:41:13.813Z,0
2018-01-12T01:42:23.937Z,0
2018-01-12T01:43:34.056Z,0
2018-01-12T01:44:44.241Z,0
2018-01-12T01:45:54.414Z,0
2018-01-12T01:47:04.591Z,0
2018-01-12T01:48:14.719Z,0
2018-01-12T01:49:24.575Z,0
2018-01-12T01:50:34.726Z,0
2018-01-12T01:51:45.029Z,0
2018-01-12T01:52:55.197Z,0
2018-01-12T01:54:05.402Z,0
2018-01-12T01:55:15.548Z,0
2018-01-12T01:56:25.768Z,0
2018-01-12T01:57:35.904Z,0
2018-01-12T01:58:46.057Z,0
2018-01-12T01:59:56.189Z,0
2018-01-12T02:01:06.321Z,0
2018-01-12T02:02:16.577Z,0
2018-01-12T02:03:26.675Z,0
2018-01-12T02:04:36.813Z,0
2018-01-12T02:05:46.931Z,0
2018-01-12T02:06:57.035Z,0
2018-01-12T02:08:07.153Z,0
2018-01-12T02:09:17.317Z,0
2018-01-12T02:10:27.439Z,0
2018-01-12T02:11:37.683Z,0
2018-01-12T02:12:47.795Z,0
2018-01-12T02:13:57.934Z,0
2018-01-12T02:15:08.126Z,0
2018-01-12T02:16:18.303Z,0
2018-01-12T02:17:28.460Z,0
2018-01-12T02:18:38.668Z,0
2018-01-12T02:19:48.776Z,0
2018-01-12T02:20:59.001Z,0
2018-01-12T02:22:09.280Z,0
2018-01-12T02:23:19.146Z,0
2018-01-12T02:24:29.041Z,0
2018-01-12T02:25:39.147Z,0
2018-01-12T02:26:49.254Z,0
2018-01-12T02:27:59.397Z,0
2018-01-12T02:29:09.569Z,0
2018-01-12T02:30:20.027Z,0
2018-01-12T02:31:30.279Z,0
2018-01-12T02:32:40.413Z,0
2018-01-12T02:33:50.609Z,0
2018-01-12T02:35:00.460Z,0
2018-01-12T02:36:10.584Z,0
2018-01-12T02:37:20.722Z,0
2018-01-12T02:38:30.959Z,0
2018-01-12T02:39:41.093Z,0
2018-01-12T02:40:51.242Z,0
2018-01-12T02:42:01.386Z,0
2018-01-12T02:43:10.901Z,0
2018-01-12T02:44:21.042Z,0
2018-01-12T02:45:31.277Z,0
2018-01-12T02:46:41.486Z,0
2018-01-12T02:47:51.593Z,0
2018-01-12T02:49:01.711Z,0
2018-01-12T02:50:11.843Z,0
2018-01-12T02:51:22.084Z,0
2018-01-12T02:52:32.274Z,0
2018-01-12T02:53:42.483Z,0
2018-01-12T02:54:52.686Z,0
2018-01-12T02:56:02.861Z,0
2018-01-12T02:57:13.047Z,0
2018-01-12T02:58:23.262Z,0
2018-01-12T02:59:33.414Z,0
2018-01-12T03:00:43.300Z,0
2018-01-12T03:01:53.424Z,0
2018-01-12T03:03:03.596Z,0
2018-01-12T03:04:13.787Z,0
2018-01-12T03:05:23.938Z,0
2018-01-12T03:06:34.055Z,0
2018-01-12T03:07:44.167Z,0
2018-01-12T03:08:54.295Z,0
2018-01-12T03:10:04.416Z,0
2018-01-12T03:11:14.526Z,0
2018-01-12T03:12:24.629Z,0
2018-01-12T03:13:34.755Z,0
2018-01-12T03:14:44.928Z,0
2018-01-12T03:15:55.284Z,0
2018-01-12T03:17:05.423Z,0
2018-01-12T03:18:15.568Z,0
2018-01-12T03:19:25.716Z,0
2018-01-12T03:20:35.476Z,0
2018-01-12T03:21:45.642Z,0
2018-01-12T03:22:55.777Z,0
2018-01-12T03:24:06.873Z,0
2018-01-12T03:25:17.010Z,0
2018-01-12T03:26:27.126Z,0
2018-01-12T03:27:37.275Z,0
2018-01-12T03:28:47.530Z,0
2018-01-12T03:29:57.709Z,0
2018-01-12T03:31:07.923Z,0
2018-01-12T03:32:17.835Z,0
2018-01-12T03:33:28.112Z,0
2018-01-12T03:34:37.985Z,0
2018-01-12T03:35:48.103Z,0
2018-01-12T03:36:58.357Z,0
2018-01-12T03:38:08.512Z,0
2018-01-12T03:39:18.680Z,0
2018-01-12T03:40:28.832Z,0
2018-01-12T03:41:39.079Z,0
2018-01-12T03:42:49.259Z,0
2018-01-12T03:43:59.437Z,0
2018-01-12T03:45:09.626Z,0
2018-01-12T03:46:19.505Z,0
2018-01-12T03:47:29.714Z,0
2018-01-12T03:48:39.857Z,0
2018-01-12T03:49:50.072Z,0
2018-01-12T03:51:00.586Z,0
2018-01-12T03:52:10.705Z,0
2018-01-12T03:53:20.635Z,0
2018-01-12T03:54:30.907Z,0
2018-01-12T03:55:41.169Z,0
2018-01-12T03:56:51.292Z,0
2018-01-12T03:58:01.409Z,0
2018-01-12T03:59:11.558Z,0
2018-01-12T04:00:21.675Z,0
2018-01-12T04:01:31.827Z,0
2018-01-12T04:02:42.026Z,0
2018-01-12T04:03:52.170Z,0
2018-01-12T04:05:02.295Z,0
2018-01-12T04:06:12.477Z,0
2018-01-12T04:07:22.578Z,0
2018-01-12T04:08:32.726Z,0
2018-01-12T04:09:42.877Z,0
2018-01-12T04:10:53.050Z,0
2018-01-12T04:12:03.174Z,0
2018-01-12T04:13:13.365Z,0
2018-01-12T04:14:23.502Z,0
2018-01-12T04:15:33.621Z,0
2018-01-12T04:16:43.735Z,0
2018-01-12T04:17:53.951Z,0
2018-01-12T04:19:04.154Z,0
2018-01-12T04:20:14.278Z,0
2018-01-12T04:21:24.389Z,0
2018-01-12T04:22:34.509Z,0
2018-01-12T04:23:44.389Z,0
2018-01-12T04:24:54.497Z,0
2018-01-12T04:26:04.645Z,0
2018-01-12T04:27:14.812Z,0
2018-01-12T04:28:24.927Z,0
2018-01-12T04:29:35.030Z,0
2018-01-12T04:30:45.136Z,0
2018-01-12T04:31:55.243Z,0
2018-01-12T04:33:05.138Z,0
2018-01-12T04:34:15.074Z,0
2018-01-12T04:35:25.186Z,0
2018-01-12T04:36:35.299Z,0
2018-01-12T04:37:45.419Z,0
2018-01-12T04:38:55.195Z,0
2018-01-12T04:40:05.297Z,0
2018-01-12T04:41:15.428Z,0
2018-01-12T04:42:25.602Z,0
2018-01-12T04:43:35.717Z,0
2018-01-12T04:44:45.821Z,0
2018-01-12T04:45:55.716Z,0
2018-01-12T04:47:05.891Z,0
2018-01-12T04:48:16.016Z,0
2018-01-12T04:49:26.261Z,0
2018-01-12T04:50:36.416Z,0
2018-01-12T04:51:47.555Z,0
2018-01-12T04:52:57.449Z,0
2018-01-12T04:54:07.556Z,0
2018-01-12T04:55:17.491Z,0
2018-01-12T04:56:27.643Z,0
2018-01-12T04:57:37.820Z,0
2018-01-12T04:58:47.979Z,0
2018-01-12T04:59:58.138Z,0
2018-01-12T05:01:08.281Z,0
2018-01-12T05:02:18.160Z,0
2018-01-12T05:03:28.320Z,0
2018-01-12T05:04:38.204Z,0
2018-01-12T05:05:48.341Z,0
2018-01-12T05:06:58.526Z,0
2018-01-12T05:08:08.702Z,0
2018-01-12T05:09:18.947Z,0
2018-01-12T05:10:29.129Z,0
2018-01-12T05:11:39.018Z,0
2018-01-12T05:12:49.211Z,0
2018-01-12T05:13:59.370Z,0
2018-01-12T05:15:09.504Z,0
2018-01-12T05:16:19.721Z,0
2018-01-12T05:17:29.896Z,0
2018-01-12T05:18:40.047Z,0
2018-01-12T05:19:50.279Z,0
2018-01-12T05:21:00.424Z,0
2018-01-12T05:22:10.562Z,0
2018-01-12T05:23:20.468Z,0
2018-01-12T05:24:30.600Z,0
2018-01-12T05:25:40.710Z,0
2018-01-12T05:26:50.916Z,0
2018-01-12T05:28:01.106Z,0
2018-01-12T05:29:11.247Z,0
2018-01-12T05:30:21.383Z,0
2018-01-12T05:31:31.643Z,0
2018-01-12T05:32:41.552Z,0
2018-01-12T05:33:51.312Z,0
2018-01-12T05:35:01.479Z,0
2018-01-12T05:36:11.370Z,0
2018-01-12T05:37:21.511Z,0
2018-01-12T05:38:31.647Z,0
2018-01-12T05:39:41.754Z,0
2018-01-12T05:40:51.946Z,0
2018-01-12T05:42:02.083Z,0
2018-01-12T05:43:12.239Z,0
2018-01-12T05:44:23.002Z,0
2018-01-12T05:45:33.284Z,0
2018-01-12T05:46:43.581Z,0
2018-01-12T05:47:53.704Z,0
2018-01-12T05:49:04.042Z,0
2018-01-12T05:50:14.245Z,0
2018-01-12T05:51:24.429Z,0
2018-01-12T05:52:34.548Z,0
2018-01-12T05:53:44.675Z,0
2018-01-12T05:54:54.812Z,0
2018-01-12T05:56:04.918Z,0
2018-01-12T05:57:14.724Z,0
2018-01-12T05:58:24.876Z,0
2018-01-12T05:59:35.142Z,0
2018-01-12T06:00:45.277Z,0
2018-01-12T06:01:55.471Z,0
2018-01-12T06:03:05.714Z,0
2018-01-12T06:04:15.842Z,0
2018-01-12T06:05:26.034Z,0
2018-01-12T06:06:36.273Z,0
2018-01-12T06:07:46.692Z,0
2018-01-12T06:08:56.913Z,0
2018-01-12T06:10:07.041Z,0
2018-01-12T06:11:17.193Z,0
2018-01-12T06:12:27.097Z,0
2018-01-12T06:13:37.259Z,0
2018-01-12T06:14:47.379Z,0
2018-01-12T06:15:57.604Z,0
2018-01-12T06:17:07.801Z,0
2018-01-12T06:18:18.024Z,0
2018-01-12T06:19:28.173Z,0
2018-01-12T06:20:38.428Z,0
2018-01-12T06:21:48.545Z,0
2018-01-12T06:22:58.703Z,0
2018-01-12T06:24:08.834Z,0
2018-01-12T06:25:18.689Z,0
2018-01-12T06:26:28.800Z,0
2018-01-12T06:27:38.942Z,0
2018-01-12T06:28:49.148Z,0
2018-01-12T06:29:59.340Z,0
2018-01-12T06:31:09.546Z,0
2018-01-12T06:32:19.775Z,0
2018-01-12T06:33:29.895Z,0
2018-01-12T06:34:40.036Z,0
2018-01-12T06:35:50.153Z,0
2018-01-12T06:37:00.312Z,0
2018-01-12T06:38:10.506Z,0
2018-01-12T06:39:20.711Z,0
2018-01-12T06:40:31.863Z,0
2018-01-12T06:41:42.017Z,0
2018-01-12T06:42:52.244Z,0
2018-01-12T06:44:02.425Z,0
2018-01-12T06:45:12.732Z,0
2018-01-12T06:46:23.078Z,0
2018-01-12T06:47:33.233Z,0
2018-01-12T06:48:43.355Z,0
2018-01-12T06:49:53.536Z,0
2018-01-12T06:51:03.939Z,0
2018-01-12T06:52:14.076Z,0
2018-01-12T06:53:24.326Z,0
2018-01-12T06:54:34.559Z,0
2018-01-12T06:55:44.150Z,0
2018-01-12T06:56:54.005Z,0
2018-01-12T06:58:04.139Z,0
2018-01-12T06:59:14.344Z,0
2018-01-12T07:00:24.700Z,0
2018-01-12T07:01:34.915Z,0
2018-01-12T07:02:45.085Z,0
2018-01-12T07:03:55.258Z,0
2018-01-12T07:05:05.516Z,0
2018-01-12T07:06:15.676Z,0
2018-01-12T07:07:25.809Z,0
2018-01-12T07:08:35.938Z,0
2018-01-12T07:09:46.071Z,0
2018-01-12T07:10:56.200Z,0
2018-01-12T07:12:06.369Z,0
2018-01-12T07:13:16.529Z,0
2018-01-12T07:14:26.640Z,0
2018-01-12T07:15:36.780Z,0
2018-01-12T07:16:46.904Z,0
2018-01-12T07:17:57.060Z,0
2018-01-12T07:19:07.301Z,0
2018-01-12T07:20:17.183Z,0
2018-01-12T07:21:27.308Z,0
2018-01-12T07:22:37.446Z,0
2018-01-12T07:23:47.598Z,0
2018-01-12T07:24:57.791Z,0
2018-01-12T07:26:07.739Z,0
2018-01-12T07:27:17.866Z,0
2018-01-12T07:28:28.057Z,0
2018-01-12T07:29:38.416Z,0
2018-01-12T07:30:48.541Z,0
2018-01-12T07:31:58.744Z,0
2018-01-12T07:33:09.035Z,5
2018-01-12T07:34:19.213Z,5
2018-01-12T07:35:29.343Z,5
2018-01-12T07:36:39.492Z,5
2018-01-12T07:37:49.708Z,5
2018-01-12T07:39:00.249Z,5
2018-01-12T07:40:10.361Z,5
2018-01-12T07:41:20.499Z,5
2018-01-12T07:42:30.731Z,5
2018-01-12T07:43:40.862Z,5
2018-01-12T07:44:51.193Z,5
2018-01-12T07:46:01.326Z,5
2018-01-12T07:47:11.488Z,10
2018-01-12T07:48:21.647Z,10
2018-01-12T07:49:31.737Z,10
2018-01-12T07:50:41.597Z,10
2018-01-12T07:51:51.722Z,15
2018-01-12T07:53:01.871Z,15
2018-01-12T07:54:11.987Z,15
2018-01-12T07:55:22.096Z,15
2018-01-12T07:56:32.418Z,15
2018-01-12T07:57:42.645Z,15
2018-01-12T07:58:52.861Z,15
2018-01-12T08:00:03.042Z,15
2018-01-12T08:01:13.290Z,20
2018-01-12T08:02:23.445Z,20
2018-01-12T08:03:33.701Z,20
2018-01-12T08:04:43.863Z,15
2018-01-12T08:05:53.993Z,15
2018-01-12T08:07:04.106Z,15
2018-01-12T08:08:14.021Z,15
2018-01-12T08:09:24.303Z,15
2018-01-12T08:10:34.494Z,15
2018-01-12T08:11:44.690Z,15
2018-01-12T08:12:54.800Z,15
2018-01-12T08:14:04.919Z,15
2018-01-12T08:15:15.050Z,15
2018-01-12T08:16:25.192Z,15
2018-01-12T08:17:35.383Z,15
2018-01-12T08:18:45.613Z,20
2018-01-12T08:19:55.766Z,20
2018-01-12T08:21:06.030Z,20
2018-01-12T08:22:16.271Z,20
2018-01-12T08:23:26.508Z,20
2018-01-12T08:24:36.662Z,20
2018-01-12T08:25:46.974Z,20
2018-01-12T08:26:57.233Z,20
2018-01-12T08:28:07.101Z,20
2018-01-12T08:29:17.263Z,20
2018-01-12T08:30:27.385Z,20
2018-01-12T08:31:37.517Z,20
2018-01-12T08:32:47.696Z,20
2018-01-12T08:33:57.885Z,20
2018-01-12T08:35:08.055Z,20
2018-01-12T08:36:18.209Z,20
2018-01-12T08:37:28.351Z,25
2018-01-12T08:38:38.483Z,25
2018-01-12T08:39:48.643Z,25
2018-01-12T08:40:58.896Z,30
2018-01-12T08:42:09.118Z,30
2018-01-12T08:43:19.311Z,30
2018-01-12T08:44:29.424Z,25
2018-01-12T08:45:39.884Z,30
2018-01-12T08:46:50.033Z,30
2018-01-12T08:48:00.169Z,30
2018-01-12T08:49:10.295Z,35
2018-01-12T08:50:20.501Z,35
2018-01-12T08:51:30.432Z,40
2018-01-12T08:52:40.582Z,45
2018-01-12T08:53:50.756Z,50
2018-01-12T08:55:00.890Z,45
2018-01-12T08:56:11.011Z,45
2018-01-12T08:57:21.157Z,40
2018-01-12T08:58:31.351Z,35
2018-01-12T08:59:41.477Z,40
2018-01-12T09:00:51.666Z,40
2018-01-12T09:02:01.830Z,45
2018-01-12T09:03:12.042Z,45
2018-01-12T09:04:22.244Z,40
2018-01-12T09:05:32.520Z,35
2018-01-12T09:06:42.778Z,40
2018-01-12T09:07:53.019Z,45
2018-01-12T09:09:03.264Z,50
2018-01-12T09:10:13.393Z,55
2018-01-12T09:11:23.602Z,60
2018-01-12T09:12:33.714Z,55
2018-01-12T09:13:43.888Z,45
2018-01-12T09:14:54.029Z,35
2018-01-12T09:16:04.167Z,30
2018-01-12T09:17:14.313Z,30
2018-01-12T09:18:24.456Z,30
2018-01-12T09:19:34.647Z,25
2018-01-12T09:20:44.802Z,25
2018-01-12T09:21:54.947Z,25
2018-01-12T09:23:05.057Z,25
2018-01-12T09:24:15.176Z,25
2018-01-12T09:25:25.315Z,25
2018-01-12T09:26:35.443Z,25
2018-01-12T09:27:45.646Z,30
2018-01-12T09:28:55.765Z,30
2018-01-12T09:30:05.626Z,30
2018-01-12T09:31:15.726Z,25
2018-01-12T09:32:26.801Z,25
2018-01-12T09:33:37.048Z,30
2018-01-12T09:34:47.157Z,35
2018-01-12T09:35:57.362Z,40
2018-01-12T09:37:07.510Z,45
2018-01-12T09:38:17.671Z,45
2018-01-12T09:39:29.024Z,45
2018-01-12T09:40:39.271Z,45
2018-01-12T09:41:49.485Z,45
2018-01-12T09:42:59.782Z,45
2018-01-12T09:44:09.931Z,45
2018-01-12T09:45:20.133Z,40
2018-01-12T09:46:30.290Z,40
2018-01-12T09:47:40.436Z,35
2018-01-12T09:48:50.321Z,30
2018-01-12T09:50:00.451Z,35
2018-01-12T09:51:10.606Z,40
2018-01-12T09:52:20.819Z,40
2018-01-12T09:53:31.023Z,45
2018-01-12T09:54:41.206Z,50
2018-01-12T09:55:51.387Z,55
2018-01-12T09:57:01.527Z,55
2018-01-12T09:58:11.674Z,55
2018-01-12T09:59:21.813Z,55
2018-01-12T10:00:31.967Z,55
2018-01-12T10:01:42.208Z,60
2018-01-12T10:02:52.080Z,60
2018-01-12T10:04:02.194Z,60
2018-01-12T10:05:12.344Z,60
2018-01-12T10:06:22.573Z,60
2018-01-12T10:07:32.714Z,60
2018-01-12T10:08:42.861Z,65
2018-01-12T10:09:53.061Z,75
2018-01-12T10:11:03.227Z,75
2018-01-12T10:12:13.351Z,75
2018-01-12T10:13:23.494Z,75
2018-01-12T10:14:33.726Z,70
2018-01-12T10:15:43.873Z,65
2018-01-12T10:16:54.047Z,65
2018-01-12T10:18:04.338Z,60
2018-01-12T10:19:14.491Z,60
2018-01-12T10:20:24.741Z,65
2018-01-12T10:21:34.897Z,75
2018-01-12T10:22:45.094Z,80
2018-01-12T10:23:55.205Z,75
2018-01-12T10:25:05.120Z,65
2018-01-12T10:26:15.294Z,65
2018-01-12T10:27:25.407Z,65
2018-01-12T10:28:35.568Z,75
2018-01-12T10:29:45.759Z,75
2018-01-12T10:30:55.506Z,70
2018-01-12T10:32:05.641Z,70
2018-01-12T10:33:15.850Z,75
2018-01-12T10:34:26.008Z,75
2018-01-12T10:35:36.174Z,75
2018-01-12T10:36:46.416Z,80
2018-01-12T10:37:56.583Z,80
2018-01-12T10:39:06.734Z,75
2018-01-12T10:40:16.997Z,70
2018-01-12T10:41:27.134Z,65
2018-01-12T10:42:37.292Z,65
2018-01-12T10:43:47.452Z,60
2018-01-12T10:44:57.597Z,65
2018-01-12T10:46:07.723Z,60
2018-01-12T10:47:17.918Z,60
2018-01-12T10:48:28.053Z,60
2018-01-12T10:49:38.312Z,60
2018-01-12T10:50:48.556Z,65
2018-01-12T10:51:58.715Z,65
2018-01-12T10:53:08.868Z,65
2018-01-12T10:54:19.034Z,70
2018-01-12T10:55:29.125Z,70
2018-01-12T10:56:39.298Z,65
2018-01-12T10:57:49.446Z,60
2018-01-12T10:58:59.585Z,65
2018-01-12T11:00:09.718Z,65
2018-01-12T11:01:19.853Z,70
2018-01-12T11:02:29.986Z,70
2018-01-12T11:03:40.114Z,80
2018-01-12T11:04:50.283Z,80
2018-01-12T11:06:00.525Z,70
2018-01-12T11:07:10.727Z,65
2018-01-12T11:08:20.905Z,65
2018-01-12T11:09:31.079Z,65
2018-01-12T11:10:41.244Z,65
2018-01-12T11:11:51.393Z,65
2018-01-12T11:13:01.592Z,65
2018-01-12T11:14:11.808Z,70
2018-01-12T11:15:21.942Z,70
2018-01-12T11:16:32.166Z,70
2018-01-12T11:17:42.307Z,75
2018-01-12T11:18:52.442Z,75
2018-01-12T11:20:02.650Z,80
2018-01-12T11:21:12.905Z,80
2018-01-12T11:22:23.065Z,85
2018-01-12T11:23:33.192Z,80
2018-01-12T11:24:43.298Z,70
2018-01-12T11:25:53.468Z,70
2018-01-12T11:27:03.681Z,70
2018-01-12T11:28:13.853Z,70
2018-01-12T11:29:24.013Z,75
2018-01-12T11:30:34.221Z,80
2018-01-12T11:31:44.375Z,90
2018-01-12T11:32:54.529Z,85
2018-01-12T11:34:04.669Z,80
2018-01-12T11:35:14.804Z,85
2018-01-12T11:36:24.957Z,90
2018-01-12T11:37:35.109Z,85
2018-01-12T11:38:45.243Z,90
2018-01-12T11:39:55.378Z,90
2018-01-12T11:41:05.528Z,90
2018-01-12T11:42:15.689Z,100
2018-01-12T11:43:25.561Z,100
2018-01-12T11:44:35.697Z,100
2018-01-12T11:45:45.835Z,95
2018-01-12T11:46:55.981Z,90
2018-01-12T11:48:06.153Z,80
2018-01-12T11:49:16.336Z,75
2018-01-12T11:50:26.514Z,80
2018-01-12T11:51:36.644Z,80
2018-01-12T11:52:46.914Z,75
2018-01-12T11:53:57.135Z,70
2018-01-12T11:55:07.329Z,65
2018-01-12T11:56:17.533Z,60
2018-01-12T11:57:27.444Z,60
2018-01-12T11:58:37.624Z,60
2018-01-12T11:59:47.857Z,60
2018-01-12T12:00:58.076Z,65
2018-01-12T12:02:08.258Z,60
2018-01-12T12:03:18.504Z,65
2018-01-12T12:04:28.676Z,60
2018-01-12T12:05:38.963Z,55
2018-01-12T12:06:49.157Z,55
2018-01-12T12:07:59.024Z,50
2018-01-12T12:09:09.199Z,55
2018-01-12T12:10:19.055Z,50
2018-01-12T12:11:29.178Z,50
2018-01-12T12:12:39.110Z,45
2018-01-12T12:13:49.237Z,45
2018-01-12T12:14:59.388Z,45
2018-01-12T12:16:09.581Z,50
2018-01-12T12:17:19.728Z,50
2018-01-12T12:18:29.967Z,50
2018-01-12T12:19:40.223Z,45
2018-01-12T12:20:50.400Z,40
2018-01-12T12:22:00.617Z,40
2018-01-12T12:23:10.747Z,40
2018-01-12T12:24:20.988Z,40
2018-01-12T12:25:31.203Z,40
2018-01-12T12:26:41.213Z,40
2018-01-12T12:27:51.361Z,35
2018-01-12T12:29:01.527Z,30
2018-01-12T12:30:11.727Z,30
2018-01-12T12:31:22.840Z,30
2018-01-12T12:32:33.101Z,30
2018-01-12T12:33:43.347Z,35
2018-01-12T12:34:53.218Z,40
2018-01-12T12:36:03.367Z,45
2018-01-12T12:37:13.518Z,45
2018-01-12T12:38:23.654Z,45
2018-01-12T12:39:33.924Z,45
2018-01-12T12:40:44.138Z,40
2018-01-12T12:41:54.412Z,35
2018-01-12T12:43:04.604Z,35
2018-01-12T12:44:14.791Z,40
2018-01-12T12:45:25.024Z,45
2018-01-12T12:46:34.949Z,50
2018-01-12T12:47:45.124Z,55
2018-01-12T12:48:55.242Z,55
2018-01-12T12:50:05.456Z,50
2018-01-12T12:51:15.655Z,45
2018-01-12T12:52:25.995Z,45
2018-01-12T12:53:36.152Z,45
2018-01-12T12:54:46.324Z,45
2018-01-12T12:55:56.300Z,55
2018-01-12T12:57:06.453Z,55
2018-01-12T12:58:16.607Z,60
2018-01-12T12:59:26.778Z,60
2018-01-12T13:00:36.893Z,60
2018-01-12T13:01:47.108Z,55
2018-01-12T13:02:57.243Z,50
2018-01-12T13:04:07.445Z,50
2018-01-12T13:05:17.250Z,45
2018-01-12T13:06:27.633Z,45
2018-01-12T13:07:37.839Z,40
2018-01-12T13:08:48.119Z,40
2018-01-12T13:09:58.369Z,40
2018-01-12T13:11:08.542Z,35
2018-01-12T13:12:18.763Z,35
2018-01-12T13:13:28.894Z,30
2018-01-12T13:14:39.095Z,30
2018-01-12T13:15:49.271Z,25
2018-01-12T13:16:59.421Z,25
2018-01-12T13:18:09.594Z,25
2018-01-12T13:19:19.445Z,30
2018-01-12T13:20:29.649Z,30
2018-01-12T13:21:39.798Z,30
2018-01-12T13:22:50.212Z,30
2018-01-12T13:24:00.436Z,30
2018-01-12T13:25:10.593Z,30
2018-01-12T13:26:20.743Z,30
2018-01-12T13:27:30.899Z,30
2018-01-12T13:28:41.061Z,25
2018-01-12T13:29:51.200Z,30
2018-01-12T13:31:01.351Z,30
2018-01-12T13:32:11.617Z,30
2018-01-12T13:33:21.846Z,30
2018-01-12T13:34:32.012Z,30
2018-01-12T13:35:42.169Z,30
2018-01-12T13:36:52.206Z,30
2018-01-12T13:38:02.399Z,30
2018-01-12T13:39:12.597Z,25
2018-01-12T13:40:22.718Z,25
2018-01-12T13:41:32.909Z,20
2018-01-12T13:42:43.102Z,20
2018-01-12T13:43:53.224Z,20
2018-01-12T13:45:03.348Z,20
2018-01-12T13:46:13.606Z,20
2018-01-12T13:47:23.808Z,20
2018-01-12T13:48:33.678Z,20
2018-01-12T13:49:43.880Z,20
2018-01-12T13:50:54.121Z,20
2018-01-12T13:52:04.366Z,20
2018-01-12T13:53:14.511Z,20
2018-01-12T13:54:24.648Z,20
2018-01-12T13:55:34.805Z,20
2018-01-12T13:56:44.973Z,20
2018-01-12T13:57:55.159Z,20
2018-01-12T13:59:05.317Z,20
2018-01-12T14:00:15.455Z,20
2018-01-12T14:01:25.629Z,15
2018-01-12T14:02:35.772Z,20
2018-01-12T14:03:45.963Z,20
2018-01-12T14:04:56.233Z,20
2018-01-12T14:06:06.493Z,20
2018-01-12T14:07:16.817Z,15
2018-01-12T14:08:26.949Z,15
2018-01-12T14:09:37.110Z,15
2018-01-12T14:10:47.364Z,15
2018-01-12T14:11:57.539Z,15
2018-01-12T14:13:07.684Z,15
2018-01-12T14:14:17.832Z,15
2018-01-12T14:15:27.974Z,15
2018-01-12T14:16:38.262Z,15
2018-01-12T14:17:48.167Z,15
2018-01-12T14:18:58.371Z,15
2018-01-12T14:20:08.320Z,15
2018-01-12T14:21:18.457Z,15
2018-01-12T14:22:28.615Z,15
2018-01-12T14:23:38.870Z,15
2018-01-12T14:24:49.019Z,15
2018-01-12T14:25:58.917Z,10
2018-01-12T14:27:09.129Z,10
2018-01-12T14:28:19.277Z,10
2018-01-12T14:29:29.465Z,10
2018-01-12T14:30:39.377Z,10
2018-01-12T14:31:49.543Z,10
2018-01-12T14:32:59.739Z,10
2018-01-12T14:34:10.017Z,10
2018-01-12T14:35:20.192Z,10
2018-01-12T14:36:30.334Z,10
2018-01-12T14:37:40.535Z,10
2018-01-12T14:38:50.725Z,10
2018-01-12T14:40:00.959Z,10
2018-01-12T14:41:11.073Z,10
2018-01-12T14:42:20.979Z,10
2018-01-12T14:43:31.183Z,10
2018-01-12T14:44:42.362Z,10
2018-01-12T14:45:52.527Z,5
2018-01-12T14:47:02.793Z,5
2018-01-12T14:48:12.947Z,5
2018-01-12T14:49:23.102Z,5
2018-01-12T14:50:33.279Z,5
2018-01-12T14:51:43.498Z,5
2018-01-12T14:52:53.691Z,5
2018-01-12T14:54:03.853Z,5
2018-01-12T14:55:14.043Z,5
2018-01-12T14:56:24.238Z,5
2018-01-12T14:57:34.390Z,5
2018-01-12T14:58:44.543Z,5
2018-01-12T14:59:54.738Z,5
2018-01-12T15:01:04.890Z,5
2018-01-12T15:02:15.043Z,5
2018-01-12T15:03:25.209Z,5
2018-01-12T15:04:35.376Z,5
2018-01-12T15:05:45.506Z,5
2018-01-12T15:06:55.692Z,5
2018-01-12T15:08:05.828Z,5
2018-01-12T15:09:16.049Z,5
2018-01-12T15:10:26.239Z,5
2018-01-12T15:11:36.438Z,5
2018-01-12T15:12:46.672Z,5
2018-01-12T15:13:56.821Z,0
2018-01-12T15:15:07.085Z,0
2018-01-12T15:16:17.277Z,0
2018-01-12T15:17:27.512Z,0
2018-01-12T15:18:37.665Z,0
2018-01-12T15:19:48.042Z,0
2018-01-12T15:20:58.265Z,0
2018-01-12T15:22:08.426Z,0
2018-01-12T15:23:19.647Z,0
2018-01-12T15:24:29.803Z,0
2018-01-12T15:25:40.197Z,0
2018-01-12T15:26:50.107Z,0
2018-01-12T15:28:00.279Z,0
2018-01-12T15:29:10.402Z,0
2018-01-12T15:30:20.203Z,0
2018-01-12T15:31:30.350Z,0
2018-01-12T15:32:40.604Z,0
2018-01-12T15:33:50.797Z,0
2018-01-12T15:35:00.962Z,0
2018-01-12T15:36:11.131Z,0
2018-01-12T15:37:21.302Z,0
2018-01-12T15:38:31.596Z,0
2018-01-12T15:39:41.904Z,0
2018-01-12T15:40:52.140Z,0
2018-01-12T15:42:02.318Z,0
2018-01-12T15:43:13.468Z,0
2018-01-12T15:44:23.702Z,0
2018-01-12T15:45:33.969Z,0
2018-01-12T15:46:44.176Z,0
2018-01-12T15:47:54.340Z,0
2018-01-12T15:49:04.608Z,0
2018-01-12T15:50:14.784Z,0
2018-01-12T15:51:24.945Z,0
2018-01-12T15:52:35.086Z,0
2018-01-12T15:53:45.129Z,0
2018-01-12T15:54:55.297Z,0
2018-01-12T15:56:05.495Z,0
2018-01-12T15:57:15.700Z,0
2018-01-12T15:58:25.840Z,0
2018-01-12T15:59:35.995Z,0
2018-01-12T16:00:46.244Z,0
2018-01-12T16:01:56.437Z,0
2018-01-12T16:03:06.643Z,0
2018-01-12T16:04:16.832Z,0
2018-01-12T16:05:28.033Z,0
2018-01-12T16:06:38.430Z,0
2018-01-12T16:07:48.650Z,0
2018-01-12T16:08:58.839Z,0
2018-01-12T16:10:09.038Z,0
2018-01-12T16:11:19.200Z,0
2018-01-12T16:12:29.437Z,0
2018-01-12T16:13:39.604Z,0
2018-01-12T16:14:49.762Z,0
2018-01-12T16:15:59.993Z,0
2018-01-12T16:17:10.181Z,0
2018-01-12T16:18:20.392Z,0
2018-01-12T16:19:30.518Z,0
2018-01-12T16:20:40.687Z,0
2018-01-12T16:21:50.910Z,0
2018-01-12T16:23:00.950Z,0
2018-01-12T16:24:11.194Z,0
2018-01-12T16:25:21.365Z,0
2018-01-12T16:26:31.582Z,0
2018-01-12T16:27:41.803Z,0
2018-01-12T16:28:52.106Z,0
2018-01-12T16:30:02.397Z,0
2018-01-12T16:31:12.595Z,0
2018-01-12T16:32:22.761Z,0
2018-01-12T16:33:32.973Z,0
2018-01-12T16:34:43.137Z,0
2018-01-12T16:35:53.339Z,0
2018-01-12T16:37:03.485Z,0
2018-01-12T16:38:13.712Z,0
2018-01-12T16:39:27.185Z,0
2018-01-12T16:40:37.352Z,0
2018-01-12T16:41:47.775Z,0
2018-01-12T16:42:57.924Z,0
2018-01-12T16:44:08.094Z,0
2018-01-12T16:45:18.233Z,0
2018-01-12T16:46:28.168Z,0
2018-01-12T16:47:38.331Z,0
2018-01-12T16:48:48.488Z,0
2018-01-12T16:49:58.665Z,0
2018-01-12T16:51:08.814Z,0
2018-01-12T16:52:18.999Z,0
2018-01-12T16:53:29.183Z,0
2018-01-12T16:54:39.401Z,0
2018-01-12T16:55:49.675Z,0
2018-01-12T16:56:59.884Z,0
2018-01-12T16:58:10.025Z,0
2018-01-12T16:59:21.232Z,0
2018-01-12T17:00:31.389Z,0
2018-01-12T17:01:41.699Z,0